createdAt,value
2018-09-14T00:00:51.988Z,60.00
2018-09-14T00:05:42.913Z,60.40
2018-09-14T00:10:34.548Z,60.40
2018-09-14T00:15:25.478Z,60.40
2018-09-14T00:20:16.417Z,60.40
2018-09-14T00:25:08.103Z,60.40
2018-09-14T00:29:59.116Z,60.50
2018-09-14T00:34:50.021Z,60.40
2018-09-14T00:39:40.941Z,60.60
2018-09-14T00:44:31.845Z,60.60
2018-09-14T00:49:22.824Z,60.50
2018-09-14T00:54:13.755Z,60.60
2018-09-14T00:59:04.696Z,60.60
2018-09-14T01:03:56.430Z,60.60
2018-09-14T01:08:47.418Z,60.50
2018-09-14T01:13:38.365Z,60.60
2018-09-14T01:18:29.350Z,60.60
2018-09-14T01:23:20.309Z,60.60
2018-09-14T01:28:11.228Z,60.50
2018-09-14T01:33:02.174Z,60.60
2018-09-14T01:37:53.932Z,60.90
2018-09-14T01:42:44.876Z,60.70
2018-09-14T01:47:35.862Z,60.70
2018-09-14T01:52:26.789Z,60.70
2018-09-14T01:57:18.470Z,60.70
2018-09-14T02:02:09.385Z,60.70
2018-09-14T02:07:00.310Z,60.70
2018-09-14T02:11:51.981Z,60.70
2018-09-14T02:16:43.014Z,60.70
2018-09-14T02:21:33.962Z,61.50
2018-09-14T02:26:24.886Z,60.70
2018-09-14T02:31:15.795Z,60.80
2018-09-14T02:36:06.721Z,60.90
2018-09-14T02:40:57.622Z,60.70
2018-09-14T02:45:48.541Z,60.80
2018-09-14T02:50:39.536Z,60.80
2018-09-14T02:55:30.549Z,60.60
2018-09-14T03:00:21.518Z,60.60
2018-09-14T03:05:12.460Z,60.70
2018-09-14T03:10:04.138Z,60.80
2018-09-14T03:14:55.865Z,60.70
2018-09-14T03:19:46.770Z,60.70
2018-09-14T03:24:37.688Z,60.80
2018-09-14T03:29:28.641Z,60.70
2018-09-14T03:34:19.568Z,60.70
2018-09-14T03:39:11.229Z,60.70
2018-09-14T03:44:02.197Z,60.70
2018-09-14T03:48:53.109Z,60.70
2018-09-14T03:53:45.501Z,60.90
2018-09-14T03:58:36.413Z,60.80
2018-09-14T04:03:28.090Z,60.90
2018-09-14T04:08:19.802Z,61.00
2018-09-14T04:13:10.761Z,60.90
2018-09-14T04:18:02.405Z,60.80
2018-09-14T04:22:53.444Z,60.80
2018-09-14T04:27:44.361Z,60.90
2018-09-14T04:32:35.381Z,60.90
2018-09-14T04:37:26.290Z,60.90
2018-09-14T04:42:17.224Z,60.90
2018-09-14T04:47:08.168Z,60.90
2018-09-14T04:51:59.078Z,60.90
2018-09-14T04:56:50.113Z,60.90
2018-09-14T05:01:41.089Z,61.00
2018-09-14T05:06:32.011Z,60.90
2018-09-14T05:11:23.770Z,60.90
2018-09-14T05:16:14.702Z,60.90
2018-09-14T05:21:05.683Z,60.90
2018-09-14T05:25:56.601Z,60.90
2018-09-14T05:30:47.501Z,60.90
2018-09-14T05:35:38.470Z,61.70
2018-09-14T05:40:29.390Z,61.10
2018-09-14T05:45:20.291Z,61.10
2018-09-14T05:50:11.225Z,61.20
2018-09-14T05:55:03.629Z,61.30
2018-09-14T05:59:54.542Z,61.30
2018-09-14T06:04:45.445Z,61.50
2018-09-14T06:09:36.358Z,61.70
2018-09-14T06:14:28.016Z,61.50
2018-09-14T06:19:18.917Z,61.50
2018-09-14T06:24:09.856Z,61.60
2018-09-14T06:29:01.579Z,61.50
2018-09-14T06:33:52.498Z,61.50
2018-09-14T06:38:44.898Z,61.70
2018-09-14T06:43:35.823Z,61.70
2018-09-14T06:48:26.782Z,61.30
2018-09-14T06:53:17.965Z,61.50
2018-09-14T06:58:08.930Z,61.70
2018-09-14T07:02:59.840Z,61.50
2018-09-14T07:07:50.788Z,61.60
2018-09-14T07:12:41.688Z,61.70
2018-09-14T07:17:32.596Z,61.80
2018-09-14T07:22:23.548Z,62.00
2018-09-14T07:27:14.437Z,61.70
2018-09-14T07:32:05.356Z,61.70
2018-09-14T07:36:56.317Z,61.60
2018-09-14T07:41:47.225Z,61.70
2018-09-14T07:46:38.129Z,62.00
2018-09-14T07:51:29.047Z,62.00
2018-09-14T07:56:20.005Z,62.20
2018-09-14T08:01:11.724Z,62.20
2018-09-14T08:06:03.444Z,62.20
2018-09-14T08:10:54.323Z,62.20
2018-09-14T08:15:45.233Z,62.00
2018-09-14T08:20:36.300Z,61.90
2018-09-14T08:25:27.226Z,61.90
2018-09-14T08:30:18.132Z,61.90
2018-09-14T08:35:09.789Z,61.50
2018-09-14T08:40:00.721Z,61.50
2018-09-14T08:44:51.664Z,61.50
2018-09-14T08:49:42.716Z,61.50
2018-09-14T08:54:34.393Z,61.30
2018-09-14T08:59:26.073Z,61.50
2018-09-14T09:04:17.728Z,61.90
2018-09-14T09:09:08.719Z,61.40
2018-09-14T09:13:59.590Z,61.30
2018-09-14T09:18:50.500Z,61.20
2018-09-14T09:23:41.445Z,61.10
2018-09-14T09:28:33.168Z,61.00
2018-09-14T09:33:24.228Z,61.00
2018-09-14T09:38:15.141Z,60.80
2018-09-14T09:43:06.859Z,60.80
2018-09-14T09:47:57.776Z,60.80
2018-09-14T09:52:48.692Z,60.80
2018-09-14T09:57:39.598Z,60.70
2018-09-14T10:02:30.510Z,60.60
2018-09-14T10:07:22.200Z,60.50
2018-09-14T10:12:13.876Z,60.40
2018-09-14T10:17:05.533Z,60.20
2018-09-14T10:21:56.437Z,60.20
2018-09-14T10:26:48.124Z,60.00
2018-09-14T10:31:39.042Z,60.00
2018-09-14T10:36:29.993Z,59.80
2018-09-14T10:41:20.889Z,59.70
2018-09-14T10:46:12.582Z,59.20
2018-09-14T10:51:04.252Z,59.00
2018-09-14T10:55:55.140Z,58.90
2018-09-14T11:00:46.848Z,58.50
2018-09-14T11:05:38.474Z,58.10
2018-09-14T11:10:29.402Z,58.00
2018-09-14T11:15:20.349Z,57.90
2018-09-14T11:20:12.011Z,57.70
2018-09-14T11:25:03.066Z,57.60
2018-09-14T11:29:53.885Z,57.70
2018-09-14T11:34:45.532Z,57.60
2018-09-14T11:39:36.457Z,57.60
2018-09-14T11:44:28.224Z,57.00
2018-09-14T11:49:19.069Z,57.00
2018-09-14T11:54:10.108Z,57.10
2018-09-14T11:59:00.925Z,57.20
2018-09-14T12:03:52.598Z,56.70
2018-09-14T12:08:43.524Z,56.70
2018-09-14T12:13:34.567Z,56.20
2018-09-14T12:18:25.413Z,56.70
2018-09-14T12:23:17.061Z,56.50
2018-09-14T12:28:07.980Z,56.40
2018-09-14T12:32:59.695Z,56.80
2018-09-14T12:37:50.611Z,56.70
2018-09-14T12:42:41.649Z,56.70
2018-09-14T12:47:32.570Z,50.80
2018-09-14T12:52:24.241Z,52.70
2018-09-14T12:57:15.889Z,53.00
2018-09-14T13:02:06.827Z,53.00
2018-09-14T13:06:57.768Z,53.10
2018-09-14T13:11:49.428Z,53.80
2018-09-14T13:16:40.357Z,53.70
2018-09-14T13:21:31.290Z,53.90
2018-09-14T13:26:22.988Z,53.70
2018-09-14T13:31:13.964Z,53.60
2018-09-14T13:36:04.894Z,53.50
2018-09-14T13:40:55.813Z,53.00
2018-09-14T13:45:46.730Z,52.70
2018-09-14T13:50:38.383Z,52.90
2018-09-14T13:55:29.333Z,52.80
2018-09-14T14:00:20.244Z,52.80
2018-09-14T14:05:11.154Z,53.30
2018-09-14T14:10:02.891Z,53.80
2018-09-14T14:14:53.796Z,53.80
2018-09-14T14:19:45.568Z,53.90
2018-09-14T14:24:36.478Z,53.80
2018-09-14T14:29:27.392Z,53.50
2018-09-14T14:34:18.581Z,53.60
2018-09-14T14:39:10.223Z,53.90
2018-09-14T14:44:01.188Z,53.70
2018-09-14T14:48:52.089Z,53.90
2018-09-14T14:53:43.017Z,54.00
2018-09-14T14:58:33.912Z,53.60
2018-09-14T15:03:24.809Z,53.10
2018-09-14T15:08:16.528Z,53.20
2018-09-14T15:13:07.451Z,53.10
2018-09-14T15:17:59.218Z,52.60
2018-09-14T15:22:50.149Z,52.60
2018-09-14T15:27:41.138Z,52.70
2018-09-14T15:32:32.063Z,53.00
2018-09-14T15:37:23.751Z,53.30
2018-09-14T15:42:15.428Z,53.50
2018-09-14T15:47:06.425Z,53.40
2018-09-14T15:51:57.390Z,53.60
2018-09-14T15:56:49.108Z,53.90
2018-09-14T16:01:40.020Z,54.10
2018-09-14T16:06:31.051Z,54.10
2018-09-14T16:11:21.969Z,54.20
2018-09-14T16:16:13.600Z,54.40
2018-09-14T16:21:04.563Z,54.40
2018-09-14T16:25:55.505Z,54.50
2018-09-14T16:30:46.430Z,54.60
2018-09-14T16:35:37.337Z,54.60
2018-09-14T16:40:28.992Z,55.00
2018-09-14T16:45:19.904Z,55.00
2018-09-14T16:50:10.818Z,55.10
2018-09-14T16:55:01.735Z,55.30
2018-09-14T16:59:52.671Z,55.40
2018-09-14T17:04:44.320Z,55.10
2018-09-14T17:09:35.228Z,55.60
2018-09-14T17:14:26.938Z,55.70
2018-09-14T17:19:17.849Z,55.60
2018-09-14T17:24:08.761Z,55.80
2018-09-14T17:29:01.203Z,55.90
2018-09-14T17:33:52.166Z,55.90
2018-09-14T17:43:35.473Z,55.60
2018-09-14T17:48:27.244Z,55.70
2018-09-14T17:53:18.189Z,55.60
2018-09-14T17:58:09.101Z,55.60
2018-09-14T18:03:00.026Z,55.50
2018-09-14T18:07:50.941Z,55.50
2018-09-14T18:12:41.859Z,55.70
2018-09-14T18:17:32.764Z,55.10
2018-09-14T18:22:23.664Z,55.80
2018-09-14T18:27:14.745Z,55.90
2018-09-14T18:32:05.706Z,56.00
2018-09-14T18:36:56.775Z,56.00
2018-09-14T18:41:47.809Z,56.10
2018-09-14T18:46:40.224Z,56.30
2018-09-14T18:51:31.117Z,56.90
2018-09-14T18:56:22.089Z,56.20
2018-09-14T19:01:13.085Z,56.30
2018-09-14T19:06:04.064Z,56.40
2018-09-14T19:10:55.558Z,56.40
2018-09-14T19:15:46.477Z,56.50
2018-09-14T19:20:37.387Z,56.50
2018-09-14T19:30:26.150Z,56.60
2018-09-14T19:35:17.157Z,56.60
2018-09-14T19:40:08.357Z,56.70
2018-09-14T19:45:00.085Z,56.80
2018-09-14T19:49:51.118Z,56.70
2018-09-14T19:54:42.833Z,56.80
2018-09-14T19:59:33.766Z,56.70
2018-09-14T20:04:25.519Z,56.90
2018-09-14T20:09:16.474Z,56.80
2018-09-14T20:14:07.462Z,57.00
2018-09-14T20:18:58.398Z,57.10
2018-09-14T20:23:49.343Z,57.20
2018-09-14T20:28:40.344Z,57.40
2018-09-14T20:33:31.264Z,57.40
2018-09-14T20:38:22.299Z,57.60
2018-09-14T20:43:13.250Z,57.70
2018-09-14T20:48:04.814Z,57.80
2018-09-14T20:52:55.744Z,57.80
2018-09-14T20:57:46.764Z,57.80
2018-09-14T21:02:37.745Z,57.80
2018-09-14T21:07:28.755Z,57.80
2018-09-14T21:12:19.798Z,57.70
2018-09-14T21:17:10.723Z,58.50
2018-09-14T21:22:01.850Z,58.00
2018-09-14T21:26:52.769Z,58.00
2018-09-14T21:31:43.678Z,58.10
2018-09-14T21:36:34.581Z,58.10
2018-09-14T21:41:26.212Z,58.20
2018-09-14T21:46:17.133Z,58.20
2018-09-14T21:51:08.852Z,58.10
2018-09-14T21:55:59.833Z,58.10
2018-09-14T22:00:50.772Z,58.10
2018-09-14T22:05:41.697Z,58.10
2018-09-14T22:10:33.336Z,58.00
2018-09-14T22:15:24.238Z,58.00
2018-09-14T22:20:15.203Z,58.00
2018-09-14T22:25:06.112Z,58.10
2018-09-14T22:29:57.144Z,58.10
2018-09-14T22:34:48.196Z,58.60
2018-09-14T22:39:39.163Z,58.00
2018-09-14T22:44:30.064Z,58.00
2018-09-14T22:49:21.009Z,58.00
2018-09-14T22:54:13.809Z,58.00
2018-09-14T22:59:04.775Z,58.00
2018-09-14T23:03:55.889Z,57.90
2018-09-14T23:08:47.252Z,57.90
2018-09-14T23:13:38.212Z,58.20
2018-09-14T23:18:29.161Z,58.20
2018-09-14T23:23:20.106Z,58.50
2018-09-14T23:28:11.772Z,58.40
2018-09-14T23:33:02.705Z,58.40
